• Join FlightAware (Why Join?)
  • Login
  • US Flag 
03:10PM EDT


 

Airport Tracker/Info


-or-


 

Live Flight TrackerFlight Track Log ✈ N450S ✈ 14-Nov-2013 ✈ KNEW - KSKY

Flight Track Log - Related Links

Times and Time Zones

All times are in EST time to prevent confusion due to time zone crossing. See the N450S flight status page for this flight to view local times or setup timezone preferences in your user account.

Time Position Orientation Groundspeed Altitude Reporting Facility
EST Latitude Longitude Course Direction KTS MPH feet Rate Location/Type
06:34PM 30.0589 -90.0319 356° North 148 170 600  Level Houston Center
06:34PM 30.0778 -90.0336 356° North 150 173 1,400 1,500 Climbing Houston Center
06:36PM 30.1311 -90.0233 North 162 186 3,200 1,620 Climbing Houston Center
06:36PM 30.1689 -90.0081 19° North 179 206 4,700 1,500 Climbing Houston Center
06:37PM 30.1772 -90.0039 23° Northeast 169 194 4,800 1,560 Climbing Houston Center
06:37PM 30.2183 -89.9867 20° North 197 227 6,300 1,500 Climbing Houston Center
06:38PM 30.2289 -89.9806 27° Northeast 183 211 6,400 1,440 Climbing Houston Center
06:39PM 30.2939 -89.9514 21° North 205 236 8,300 1,680 Climbing Houston Center
06:40PM 30.3486 -89.9247 23° Northeast 210 242 9,900 1,440 Climbing Houston Center
06:41PM 30.4058 -89.9189 North 204 235 11,400 1,440 Climbing Houston Center
06:42PM 30.4611 -89.8942 21° North 213 245 13,000 1,500 Climbing Houston Center
06:43PM 30.5178 -89.8625 26° Northeast 223 257 14,500 1,500 Climbing Houston Center
06:44PM 30.5742 -89.8292 27° Northeast 226 260 16,100 1,500 Climbing Houston Center
06:45PM 30.6328 -89.7956 26° Northeast 233 268 17,600 1,260 Climbing Houston Center
06:46PM 30.7031 -89.7553 26° Northeast 235 270 18,800 1,140 Climbing Houston Center
06:47PM 30.7653 -89.7194 26° Northeast 247 284 20,000 1,020 Climbing Houston Center
06:48PM 30.8281 -89.6839 26° Northeast 249 287 21,000 900 Climbing Houston Center
06:49PM 30.8900 -89.6467 27° Northeast 251 289 21,900 840 Climbing Houston Center
06:50PM 30.9533 -89.6100 26° Northeast 253 291 22,800 720 Climbing Houston Center
06:51PM 31.0186 -89.5711 27° Northeast 262 302 23,500 720 Climbing Houston Center
06:52PM 31.1019 -89.5231 26° Northeast 276 318 24,300 720 Climbing Houston Center
06:53PM 31.1708 -89.4822 27° Northeast 279 321 25,000 300 Climbing Houston Center
06:54PM 31.2461 -89.4394 26° Northeast 298 343 25,000  Level Houston Center
06:55PM 31.3178 -89.3961 27° Northeast 309 356 25,000  Level Houston Center
06:56PM 31.4133 -89.3394 27° Northeast 320 368 25,000  Level Houston Center
06:57PM 31.4944 -89.2958 25° Northeast 321 369 25,000  Level Houston Center
06:58PM 31.5744 -89.2517 25° Northeast 319 367 25,000  Level Houston Center
07:00PM 31.6536 -89.2078 25° Northeast 317 365 25,000  Level Houston Center
07:01PM 31.7325 -89.1644 25° Northeast 314 361 25,000  Level Houston Center
07:02PM 31.8119 -89.1200 25° Northeast 315 362 25,000  Level Houston Center
07:02PM 31.8925 -89.0750 25° Northeast 313 360 25,000  Level Memphis Center
07:03PM 31.9603 -89.0378 25° Northeast 313 360 25,000  Level Memphis Center
07:04PM 32.0542 -88.9864 25° Northeast 313 360 25,000  Level Memphis Center
07:06PM 32.1311 -88.9439 25° Northeast 310 357 25,000  Level Memphis Center
07:07PM 32.2086 -88.9006 25° Northeast 310 357 25,000  Level Memphis Center
07:08PM 32.2850 -88.8586 25° Northeast 308 354 25,000  Level Memphis Center
07:09PM 32.3786 -88.8042 26° Northeast 311 358 25,000  Level Memphis Center
07:10PM 32.4561 -88.7594 26° Northeast 312 359 25,000  Level Memphis Center
07:11PM 32.5314 -88.7136 27° Northeast 311 358 25,000  Level Memphis Center
07:12PM 32.6053 -88.6694 27° Northeast 305 351 25,000  Level Memphis Center
07:13PM 32.6797 -88.6247 27° Northeast 302 348 25,000  Level Memphis Center
07:14PM 32.7708 -88.5703 27° Northeast 306 352 25,000  Level Memphis Center
07:15PM 32.8472 -88.5250 26° Northeast 309 356 25,000  Level Memphis Center
07:16PM 32.9225 -88.4789 27° Northeast 308 354 25,000  Level Memphis Center
07:17PM 32.9986 -88.4342 26° Northeast 307 353 25,000  Level Memphis Center
07:18PM 33.0733 -88.3883 27° Northeast 305 351 25,000  Level Memphis Center
07:19PM 33.1631 -88.3333 27° Northeast 306 352 25,000  Level Memphis Center
07:20PM 33.2372 -88.2872 27° Northeast 304 350 25,000  Level Memphis Center
07:21PM 33.3125 -88.2422 27° Northeast 303 349 25,000  Level Memphis Center
07:22PM 33.3914 -88.1956 26° Northeast 309 356 25,000  Level Memphis Center
07:23PM 33.4675 -88.1492 27° Northeast 308 354 25,000  Level Memphis Center
07:24PM 33.5436 -88.1025 27° Northeast 308 354 25,000  Level Memphis Center
07:25PM 33.6350 -88.0458 27° Northeast 308 354 25,000  Level Memphis Center
07:26PM 33.7103 -87.9989 27° Northeast 306 352 25,000  Level Memphis Center
07:27PM 33.7861 -87.9522 27° Northeast 306 352 25,000  Level Memphis Center
07:28PM 33.8672 -87.9003 28° Northeast 307 353 25,000  Level Memphis Center
07:29PM 33.9450 -87.8531 27° Northeast 309 356 25,000  Level Memphis Center
07:30PM 34.0225 -87.8050 27° Northeast 309 356 25,000  Level Memphis Center
07:31PM 34.0994 -87.7564 28° Northeast 309 356 25,000  Level Memphis Center
07:32PM 34.1775 -87.7078 27° Northeast 311 358 25,000  Level Memphis Center
07:33PM 34.2667 -87.6514 28° Northeast 309 356 25,000  Level Memphis Center
07:34PM 34.3436 -87.6039 27° Northeast 308 354 25,000  Level Memphis Center
07:36PM 34.4197 -87.5564 27° Northeast 306 352 25,000  Level Memphis Center
07:37PM 34.4978 -87.5064 28° Northeast 309 356 25,000  Level Memphis Center
07:38PM 34.5750 -87.4581 27° Northeast 310 357 25,000  Level Memphis Center
07:39PM 34.6519 -87.4092 28° Northeast 309 356 25,000  Level Memphis Center
07:39PM 34.6903 -87.3850 27° Northeast 309 356 25,000  Level Memphis Center
07:40PM 34.7669 -87.3367 27° Northeast 308 354 25,000  Level Memphis Center
07:41PM 34.8447 -87.2875 27° Northeast 310 357 25,000  Level Memphis Center
07:42PM 34.9211 -87.2381 28° Northeast 309 356 25,000  Level Memphis Center
07:43PM 34.9983 -87.1908 27° Northeast 309 356 25,000  Level Memphis Center
07:44PM 35.0756 -87.1414 28° Northeast 310 357 25,000  Level Memphis Center
07:45PM 35.1506 -87.0922 28° Northeast 308 354 25,000  Level Memphis Center
07:46PM 35.2425 -87.0353 27° Northeast 309 356 25,000  Level Memphis Center
07:47PM 35.3175 -86.9853 29° Northeast 308 354 25,000  Level Memphis Center
07:48PM 35.3942 -86.9372 27° Northeast 307 353 25,000  Level Memphis Center
07:49PM 35.4700 -86.8889 27° Northeast 306 352 25,000  Level Memphis Center
07:50PM 35.5444 -86.8394 28° Northeast 304 350 25,000  Level Memphis Center
07:51PM 35.6211 -86.7897 28° Northeast 306 352 25,000  Level Memphis Center
07:52PM 35.7103 -86.7303 28° Northeast 309 356 25,000  Level Memphis Center
07:53PM 35.7861 -86.6811 28° Northeast 308 354 25,000  Level Memphis Center
07:55PM 35.8611 -86.6314 28° Northeast 305 351 25,000  Level Memphis Center
07:56PM 35.9364 -86.5831 27° Northeast 304 350 25,000  Level Memphis Center
07:57PM 36.0108 -86.5336 28° Northeast 302 348 25,000  Level Memphis Center
07:58PM 36.0856 -86.4842 28° Northeast 303 349 25,000  Level Memphis Center
07:59PM 36.1728 -86.4269 28° Northeast 303 349 25,000  Level Memphis Center
08:00PM 36.2478 -86.3781 28° Northeast 303 349 25,000  Level Memphis Center
08:01PM 36.3217 -86.3283 28° Northeast 302 348 25,000  Level Memphis Center
08:02PM 36.3969 -86.2789 28° Northeast 303 349 25,000  Level Memphis Center
08:03PM 36.4856 -86.2200 28° Northeast 306 352 25,000  Level Memphis Center
08:04PM 36.5603 -86.1692 29° Northeast 305 351 25,000  Level Memphis Center
08:05PM 36.6364 -86.1194 28° Northeast 307 353 25,000  Level Memphis Center
08:06PM 36.7117 -86.0675 29° Northeast 306 352 25,000  Level Memphis Center
08:07PM 36.7886 -86.0167 28° Northeast 309 356 25,000  Level Memphis Center
08:08PM 36.8653 -85.9656 28° Northeast 310 357 25,000  Level Memphis Center
08:09PM 36.9417 -85.9131 29° Northeast 311 358 25,000  Level Memphis Center
08:10PM 37.0317 -85.8531 28° Northeast 311 358 25,000  Level Indianapolis Center
08:11PM 37.1089 -85.8003 29° Northeast 311 358 25,000  Level Indianapolis Center
08:12PM 37.1992 -85.7400 28° Northeast 313 360 25,000  Level Indianapolis Center
08:13PM 37.2769 -85.6875 28° Northeast 316 364 25,000  Level Indianapolis Center
08:14PM 37.3450 -85.6408 29° Northeast 315 362 25,000  Level Indianapolis Center
08:15PM 37.4214 -85.5883 29° Northeast 313 360 25,000  Level Indianapolis Center
08:16PM 37.5133 -85.5250 29° Northeast 313 360 25,000  Level Indianapolis Center
08:17PM 37.5803 -85.4778 29° Northeast 308 354 25,000  Level Indianapolis Center
08:18PM 37.6694 -85.4175 28° Northeast 310 357 25,000  Level Indianapolis Center
08:19PM 37.7453 -85.3642 29° Northeast 313 360 25,000  Level Indianapolis Center
08:20PM 37.8217 -85.3111 29° Northeast 312 359 25,000  Level Indianapolis Center
08:22PM 37.8944 -85.2617 28° Northeast 316 364 25,000  Level Indianapolis Center
08:23PM 37.9719 -85.2081 29° Northeast 315 362 25,000  Level Indianapolis Center
08:24PM 38.0525 -85.1506 29° Northeast 310 357 25,000  Level Indianapolis Center
08:25PM 38.1300 -85.0961 29° Northeast 316 364 25,000  Level Indianapolis Center
08:26PM 38.2200 -85.0331 29° Northeast 316 364 25,000  Level Indianapolis Center
08:27PM 38.2950 -84.9806 29° Northeast 310 357 25,000  Level Indianapolis Center
08:28PM 38.3725 -84.9256 29° Northeast 315 362 25,000  Level Indianapolis Center
08:29PM 38.4514 -84.8703 29° Northeast 320 368 25,000  Level Indianapolis Center
08:30PM 38.5272 -84.8167 29° Northeast 313 360 25,000  Level Indianapolis Center
08:31PM 38.6036 -84.7617 29° Northeast 312 359 25,000  Level Indianapolis Center
08:32PM 38.6786 -84.7078 29° Northeast 309 356 25,000  Level Indianapolis Center
08:33PM 38.7669 -84.6444 29° Northeast 308 354 25,000  Level Indianapolis Center
08:34PM 38.8414 -84.5908 29° Northeast 306 352 25,000  Level Indianapolis Center
08:35PM 38.9167 -84.5361 29° Northeast 311 358 25,000  Level Indianapolis Center
08:36PM 38.9847 -84.4883 29° Northeast 311 358 25,000  Level Indianapolis Center
08:37PM 39.0758 -84.4219 29° Northeast 314 361 25,000  Level Indianapolis Center
08:38PM 39.1525 -84.3667 29° Northeast 316 364 25,000  Level Indianapolis Center
08:39PM 39.2289 -84.3133 28° Northeast 312 359 25,000  Level Indianapolis Center
08:40PM 39.3050 -84.2572 30° Northeast 315 362 25,000  Level Indianapolis Center
08:41PM 39.3803 -84.2031 29° Northeast 310 357 25,000  Level Indianapolis Center
08:42PM 39.4556 -84.1467 30° Northeast 311 358 25,000  Level Indianapolis Center
08:43PM 39.5317 -84.0919 29° Northeast 313 360 25,000  Level Indianapolis Center
08:44PM 39.6214 -84.0264 29° Northeast 308 354 25,000  Level Indianapolis Center
08:45PM 39.6975 -83.9697 30° Northeast 314 361 25,000  Level Indianapolis Center
08:46PM 39.7742 -83.9133 29° Northeast 315 362 25,000  Level Indianapolis Center
08:47PM 39.8500 -83.8578 29° Northeast 311 358 25,000  Level Indianapolis Center
08:48PM 39.9261 -83.8006 30° Northeast 312 359 25,000  Level Indianapolis Center
08:49PM 40.0033 -83.7436 29° Northeast 316 364 25,000  Level Indianapolis Center
08:50PM 40.0800 -83.6853 30° Northeast 317 365 25,000  Level Indianapolis Center
08:51PM 40.1575 -83.6278 30° Northeast 318 366 25,000 -300 Level Indianapolis Center
08:52PM 40.2361 -83.5694 30° Northeast 322 371 24,500 -720 Descending Indianapolis Center
08:53PM 40.3206 -83.5056 30° Northeast 345 397 23,600 -1,260 Descending Indianapolis Center
08:54PM 40.4264 -83.4256 30° Northeast 363 418 22,000 -1,560 Descending Indianapolis Center
08:55PM 40.5142 -83.3586 30° Northeast 366 421 20,500 -1,500 Descending Indianapolis Center
08:56PM 40.5994 -83.2942 30° Northeast 356 410 19,000 -1,440 Descending Indianapolis Center
08:58PM 40.6831 -83.2292 31° Northeast 349 402 17,600 -1,620 Descending Indianapolis Center
08:59PM 40.7653 -83.1681 29° Northeast 342 394 15,800 -1,740 Descending Indianapolis Center
09:00PM 40.8478 -83.1039 30° Northeast 332 382 14,100 -1,620 Descending Indianapolis Center
09:00PM 40.8878 -83.0731 30° Northeast 330 380 13,300 -1,560 Descending Cleveland Center
09:01PM 40.9639 -83.0125 31° Northeast 318 366 11,700 -1,620 Descending Cleveland Center
09:02PM 41.0378 -82.9561 30° Northeast 306 352 10,000 -1,740 Descending Cleveland Center
09:03PM 41.1081 -82.9019 30° Northeast 288 331 8,400 -1,860 Descending Cleveland Center
09:03PM 41.1194 -82.8944 26° Northeast 290 334 8,100 -1,740 Descending Cleveland Center
09:04PM 41.1878 -82.8411 30° Northeast 284 327 6,400 -1,680 Descending Cleveland Center
09:05PM 41.2406 -82.8003 30° Northeast 282 325 5,200 -1,500 Descending Cleveland Center
09:05PM 41.2569 -82.7867 32° Northeast 285 328 4,900 -540 Descending Cleveland Center
09:06PM 41.3208 -82.7372 30° Northeast 284 327 4,500 -1,020 Descending Cleveland Center
09:09PM 41.4239 -82.5953 46° Northeast 225 259 1,500 -1,020 Descending Indianapolis Center
09:10PM 41.4336 -82.6331 289° West 141 162 900 -600 Descending Indianapolis Center
09:12PM 41.4333 -82.6500 270° West  Level FlightAware Approximate